sensor_id;sensor_type;location;lat;lon;timestamp;temperature;humidity
36002;DHT22;22070;50.922;5.430;2023-07-29T00:01:34;20.60;99.90
36002;DHT22;22070;50.922;5.430;2023-07-29T00:04:00;20.60;99.90
36002;DHT22;22070;50.922;5.430;2023-07-29T00:06:26;20.60;99.90
36002;DHT22;22070;50.922;5.430;2023-07-29T00:08:51;20.60;99.90
36002;DHT22;22070;50.922;5.430;2023-07-29T00:11:17;20.60;99.90
36002;DHT22;22070;50.922;5.430;2023-07-29T00:13:42;20.60;99.90
36002;DHT22;22070;50.922;5.430;2023-07-29T00:16:08;20.70;99.90
36002;DHT22;22070;50.922;5.430;2023-07-29T00:18:34;20.60;99.90
36002;DHT22;22070;50.922;5.430;2023-07-29T00:20:59;20.60;99.90
36002;DHT22;22070;50.922;5.430;2023-07-29T00:23:25;20.50;99.90
36002;DHT22;22070;50.922;5.430;2023-07-29T00:25:51;20.60;99.90
36002;DHT22;22070;50.922;5.430;2023-07-29T00:28:16;20.70;99.90
36002;DHT22;22070;50.922;5.430;2023-07-29T00:30:42;20.60;99.90
36002;DHT22;22070;50.922;5.430;2023-07-29T00:33:08;20.70;99.90
36002;DHT22;22070;50.922;5.430;2023-07-29T00:35:34;20.80;99.90
36002;DHT22;22070;50.922;5.430;2023-07-29T00:38:00;20.70;99.90
36002;DHT22;22070;50.922;5.430;2023-07-29T00:40:28;20.70;99.90
36002;DHT22;22070;50.922;5.430;2023-07-29T00:42:54;20.70;99.90
36002;DHT22;22070;50.922;5.430;2023-07-29T00:45:20;20.70;99.90
36002;DHT22;22070;50.922;5.430;2023-07-29T00:47:46;20.70;99.90
36002;DHT22;22070;50.922;5.430;2023-07-29T00:50:13;20.70;99.90
36002;DHT22;22070;50.922;5.430;2023-07-29T00:52:39;20.70;99.90
36002;DHT22;22070;50.922;5.430;2023-07-29T00:55:06;20.60;99.90
36002;DHT22;22070;50.922;5.430;2023-07-29T00:57:32;20.80;99.90
36002;DHT22;22070;50.922;5.430;2023-07-29T00:59:59;20.70;99.90
36002;DHT22;22070;50.922;5.430;2023-07-29T01:02:26;20.60;99.90
36002;DHT22;22070;50.922;5.430;2023-07-29T01:04:57;20.60;99.90
36002;DHT22;22070;50.922;5.430;2023-07-29T01:10:09;20.60;99.90
36002;DHT22;22070;50.922;5.430;2023-07-29T01:13:05;20.60;99.90
36002;DHT22;22070;50.922;5.430;2023-07-29T01:15:33;20.60;99.90
36002;DHT22;22070;50.922;5.430;2023-07-29T01:18:05;20.60;99.90
36002;DHT22;22070;50.922;5.430;2023-07-29T01:20:34;20.60;99.90
36002;DHT22;22070;50.922;5.430;2023-07-29T01:23:01;20.60;99.90
36002;DHT22;22070;50.922;5.430;2023-07-29T01:25:26;20.50;99.90
36002;DHT22;22070;50.922;5.430;2023-07-29T01:27:52;20.50;99.90
36002;DHT22;22070;50.922;5.430;2023-07-29T01:30:19;20.50;99.90
36002;DHT22;22070;50.922;5.430;2023-07-29T01:33:08;20.50;99.90
36002;DHT22;22070;50.922;5.430;2023-07-29T01:35:54;20.50;99.90
36002;DHT22;22070;50.922;5.430;2023-07-29T01:38:38;20.60;99.90
36002;DHT22;22070;50.922;5.430;2023-07-29T01:41:06;20.60;99.90
36002;DHT22;22070;50.922;5.430;2023-07-29T01:43:33;20.60;99.90
36002;DHT22;22070;50.922;5.430;2023-07-29T01:46:00;20.50;99.90
36002;DHT22;22070;50.922;5.430;2023-07-29T01:48:26;20.30;99.90
36002;DHT22;22070;50.922;5.430;2023-07-29T01:50:53;20.30;99.90
36002;DHT22;22070;50.922;5.430;2023-07-29T01:53:18;20.20;99.90
36002;DHT22;22070;50.922;5.430;2023-07-29T01:55:44;20.20;99.90
36002;DHT22;22070;50.922;5.430;2023-07-29T01:58:11;20.20;99.90
36002;DHT22;22070;50.922;5.430;2023-07-29T02:00:37;20.10;99.90
36002;DHT22;22070;50.922;5.430;2023-07-29T02:03:02;20.00;99.90
36002;DHT22;22070;50.922;5.430;2023-07-29T02:05:28;20.00;99.90
36002;DHT22;22070;50.922;5.430;2023-07-29T02:07:53;19.90;99.90
36002;DHT22;22070;50.922;5.430;2023-07-29T02:10:19;19.90;99.90
36002;DHT22;22070;50.922;5.430;2023-07-29T02:12:45;20.00;99.90
36002;DHT22;22070;50.922;5.430;2023-07-29T02:15:10;19.90;99.90
36002;DHT22;22070;50.922;5.430;2023-07-29T02:17:36;19.90;99.90
36002;DHT22;22070;50.922;5.430;2023-07-29T02:20:03;19.90;99.90
36002;DHT22;22070;50.922;5.430;2023-07-29T02:22:29;19.80;99.90
36002;DHT22;22070;50.922;5.430;2023-07-29T02:24:55;19.80;99.90
36002;DHT22;22070;50.922;5.430;2023-07-29T02:27:21;19.70;99.90
36002;DHT22;22070;50.922;5.430;2023-07-29T02:29:46;19.60;99.90
36002;DHT22;22070;50.922;5.430;2023-07-29T02:32:12;19.60;99.90
36002;DHT22;22070;50.922;5.430;2023-07-29T02:34:37;19.70;99.90
36002;DHT22;22070;50.922;5.430;2023-07-29T02:37:03;19.60;99.90
36002;DHT22;22070;50.922;5.430;2023-07-29T02:39:29;19.60;99.90
36002;DHT22;22070;50.922;5.430;2023-07-29T02:41:54;19.50;99.90
36002;DHT22;22070;50.922;5.430;2023-07-29T02:44:21;19.50;99.90
36002;DHT22;22070;50.922;5.430;2023-07-29T02:46:47;19.50;99.90
36002;DHT22;22070;50.922;5.430;2023-07-29T02:49:12;19.50;99.90
36002;DHT22;22070;50.922;5.430;2023-07-29T02:51:38;19.50;99.90
36002;DHT22;22070;50.922;5.430;2023-07-29T02:54:04;19.50;99.90
36002;DHT22;22070;50.922;5.430;2023-07-29T02:56:29;19.50;99.90
36002;DHT22;22070;50.922;5.430;2023-07-29T02:58:56;19.50;99.90
36002;DHT22;22070;50.922;5.430;2023-07-29T03:01:22;19.40;99.90
36002;DHT22;22070;50.922;5.430;2023-07-29T03:03:50;19.40;99.90
36002;DHT22;22070;50.922;5.430;2023-07-29T03:06:16;19.50;99.90
36002;DHT22;22070;50.922;5.430;2023-07-29T03:08:41;19.40;99.90
36002;DHT22;22070;50.922;5.430;2023-07-29T03:11:09;19.30;99.90
36002;DHT22;22070;50.922;5.430;2023-07-29T03:13:36;19.40;99.90
36002;DHT22;22070;50.922;5.430;2023-07-29T03:16:09;19.40;99.90
36002;DHT22;22070;50.922;5.430;2023-07-29T03:18:35;19.30;99.90
36002;DHT22;22070;50.922;5.430;2023-07-29T03:21:01;19.40;99.90
36002;DHT22;22070;50.922;5.430;2023-07-29T03:23:28;19.30;99.90
36002;DHT22;22070;50.922;5.430;2023-07-29T03:25:55;19.20;99.90
36002;DHT22;22070;50.922;5.430;2023-07-29T03:28:28;19.10;99.90
36002;DHT22;22070;50.922;5.430;2023-07-29T03:30:57;19.00;99.90
36002;DHT22;22070;50.922;5.430;2023-07-29T03:33:23;19.00;99.90
36002;DHT22;22070;50.922;5.430;2023-07-29T03:35:49;18.90;99.90
36002;DHT22;22070;50.922;5.430;2023-07-29T03:38:15;18.90;99.90
36002;DHT22;22070;50.922;5.430;2023-07-29T03:40:41;18.80;99.90
36002;DHT22;22070;50.922;5.430;2023-07-29T03:43:07;18.80;99.90
36002;DHT22;22070;50.922;5.430;2023-07-29T03:45:34;18.90;99.90
36002;DHT22;22070;50.922;5.430;2023-07-29T03:47:59;18.80;99.90
36002;DHT22;22070;50.922;5.430;2023-07-29T03:50:25;18.80;99.90
36002;DHT22;22070;50.922;5.430;2023-07-29T03:52:51;18.80;99.90
36002;DHT22;22070;50.922;5.430;2023-07-29T03:55:17;18.70;99.90
36002;DHT22;22070;50.922;5.430;2023-07-29T03:57:42;18.70;99.90
36002;DHT22;22070;50.922;5.430;2023-07-29T04:00:08;18.70;99.90
36002;DHT22;22070;50.922;5.430;2023-07-29T04:02:37;18.70;99.90
36002;DHT22;22070;50.922;5.430;2023-07-29T04:05:06;18.70;99.90
36002;DHT22;22070;50.922;5.430;2023-07-29T04:07:34;18.70;99.90
36002;DHT22;22070;50.922;5.430;2023-07-29T04:10:00;18.70;99.90
36002;DHT22;22070;50.922;5.430;2023-07-29T04:12:26;18.70;99.90
36002;DHT22;22070;50.922;5.430;2023-07-29T04:14:52;18.60;99.90
36002;DHT22;22070;50.922;5.430;2023-07-29T04:17:18;18.60;99.90
36002;DHT22;22070;50.922;5.430;2023-07-29T04:19:44;18.70;99.90
36002;DHT22;22070;50.922;5.430;2023-07-29T04:22:09;18.60;99.90
36002;DHT22;22070;50.922;5.430;2023-07-29T04:24:35;18.60;99.90
36002;DHT22;22070;50.922;5.430;2023-07-29T04:27:01;18.60;99.90
36002;DHT22;22070;50.922;5.430;2023-07-29T04:29:27;18.60;99.90
36002;DHT22;22070;50.922;5.430;2023-07-29T04:31:52;18.60;99.90
36002;DHT22;22070;50.922;5.430;2023-07-29T04:34:18;18.60;99.90
36002;DHT22;22070;50.922;5.430;2023-07-29T04:36:45;18.50;99.90
36002;DHT22;22070;50.922;5.430;2023-07-29T04:39:10;18.50;99.90
36002;DHT22;22070;50.922;5.430;2023-07-29T04:41:36;18.70;99.90
36002;DHT22;22070;50.922;5.430;2023-07-29T04:44:02;18.70;99.90
36002;DHT22;22070;50.922;5.430;2023-07-29T04:46:27;18.60;99.90
36002;DHT22;22070;50.922;5.430;2023-07-29T04:48:53;18.50;99.90
36002;DHT22;22070;50.922;5.430;2023-07-29T04:51:19;18.60;99.90
36002;DHT22;22070;50.922;5.430;2023-07-29T04:53:44;18.50;99.90
36002;DHT22;22070;50.922;5.430;2023-07-29T04:56:10;18.50;99.90
36002;DHT22;22070;50.922;5.430;2023-07-29T04:58:36;18.50;99.90
36002;DHT22;22070;50.922;5.430;2023-07-29T05:01:03;18.50;99.90
36002;DHT22;22070;50.922;5.430;2023-07-29T05:03:29;18.50;99.90
36002;DHT22;22070;50.922;5.430;2023-07-29T05:05:55;18.50;99.90
36002;DHT22;22070;50.922;5.430;2023-07-29T05:08:21;18.50;99.90
36002;DHT22;22070;50.922;5.430;2023-07-29T05:10:53;18.50;99.90
36002;DHT22;22070;50.922;5.430;2023-07-29T05:13:20;18.60;99.90
36002;DHT22;22070;50.922;5.430;2023-07-29T05:15:48;18.50;99.90
36002;DHT22;22070;50.922;5.430;2023-07-29T05:18:14;18.60;99.90
36002;DHT22;22070;50.922;5.430;2023-07-29T05:20:40;18.50;99.90
36002;DHT22;22070;50.922;5.430;2023-07-29T05:23:05;18.40;99.90
36002;DHT22;22070;50.922;5.430;2023-07-29T05:25:31;18.40;99.90
36002;DHT22;22070;50.922;5.430;2023-07-29T05:27:56;18.40;99.90
36002;DHT22;22070;50.922;5.430;2023-07-29T05:30:22;18.50;99.90
36002;DHT22;22070;50.922;5.430;2023-07-29T05:32:48;18.50;99.90
36002;DHT22;22070;50.922;5.430;2023-07-29T05:35:14;18.50;99.90
36002;DHT22;22070;50.922;5.430;2023-07-29T05:37:40;18.50;99.90
36002;DHT22;22070;50.922;5.430;2023-07-29T05:40:07;18.60;99.90
36002;DHT22;22070;50.922;5.430;2023-07-29T05:42:33;18.70;99.90
36002;DHT22;22070;50.922;5.430;2023-07-29T05:44:59;18.70;99.90
36002;DHT22;22070;50.922;5.430;2023-07-29T05:47:25;18.80;99.90
36002;DHT22;22070;50.922;5.430;2023-07-29T05:49:51;18.80;99.90
36002;DHT22;22070;50.922;5.430;2023-07-29T05:52:16;18.80;99.90
36002;DHT22;22070;50.922;5.430;2023-07-29T05:54:42;18.80;99.90
36002;DHT22;22070;50.922;5.430;2023-07-29T05:57:09;19.00;99.90
36002;DHT22;22070;50.922;5.430;2023-07-29T05:59:35;19.00;99.90
36002;DHT22;22070;50.922;5.430;2023-07-29T06:02:01;19.10;99.90
36002;DHT22;22070;50.922;5.430;2023-07-29T06:04:26;19.00;99.90
36002;DHT22;22070;50.922;5.430;2023-07-29T06:06:52;19.10;99.90
36002;DHT22;22070;50.922;5.430;2023-07-29T06:09:18;19.00;99.90
36002;DHT22;22070;50.922;5.430;2023-07-29T06:11:43;19.00;99.90
36002;DHT22;22070;50.922;5.430;2023-07-29T06:14:09;19.00;99.90
36002;DHT22;22070;50.922;5.430;2023-07-29T06:16:35;19.00;99.90
36002;DHT22;22070;50.922;5.430;2023-07-29T06:19:00;19.10;99.90
36002;DHT22;22070;50.922;5.430;2023-07-29T06:21:26;19.10;99.90
36002;DHT22;22070;50.922;5.430;2023-07-29T06:23:52;18.90;99.90
36002;DHT22;22070;50.922;5.430;2023-07-29T06:26:18;18.90;99.90
36002;DHT22;22070;50.922;5.430;2023-07-29T06:28:44;19.00;99.90
36002;DHT22;22070;50.922;5.430;2023-07-29T06:31:09;19.00;99.90
36002;DHT22;22070;50.922;5.430;2023-07-29T06:33:35;19.00;99.90
36002;DHT22;22070;50.922;5.430;2023-07-29T06:36:01;19.00;99.90
36002;DHT22;22070;50.922;5.430;2023-07-29T06:38:27;18.90;99.90
36002;DHT22;22070;50.922;5.430;2023-07-29T06:40:52;19.00;99.90
36002;DHT22;22070;50.922;5.430;2023-07-29T06:43:18;19.00;99.90
36002;DHT22;22070;50.922;5.430;2023-07-29T06:45:44;19.00;99.90
36002;DHT22;22070;50.922;5.430;2023-07-29T06:48:09;19.00;99.90
36002;DHT22;22070;50.922;5.430;2023-07-29T06:50:35;19.20;99.90
36002;DHT22;22070;50.922;5.430;2023-07-29T06:53:01;19.00;99.90
36002;DHT22;22070;50.922;5.430;2023-07-29T06:55:26;19.10;99.90
36002;DHT22;22070;50.922;5.430;2023-07-29T06:57:52;19.10;99.90
36002;DHT22;22070;50.922;5.430;2023-07-29T07:00:17;19.10;99.90
36002;DHT22;22070;50.922;5.430;2023-07-29T07:02:43;19.10;99.90
36002;DHT22;22070;50.922;5.430;2023-07-29T07:05:09;19.20;99.90
36002;DHT22;22070;50.922;5.430;2023-07-29T07:07:34;19.20;99.90
36002;DHT22;22070;50.922;5.430;2023-07-29T07:10:00;19.30;99.90
36002;DHT22;22070;50.922;5.430;2023-07-29T07:12:26;19.30;99.90
36002;DHT22;22070;50.922;5.430;2023-07-29T07:14:52;19.40;99.90
36002;DHT22;22070;50.922;5.430;2023-07-29T07:17:18;19.50;99.90
36002;DHT22;22070;50.922;5.430;2023-07-29T07:19:43;19.50;99.90
36002;DHT22;22070;50.922;5.430;2023-07-29T07:22:09;19.70;99.90
36002;DHT22;22070;50.922;5.430;2023-07-29T07:24:35;19.70;99.90
36002;DHT22;22070;50.922;5.430;2023-07-29T07:27:01;19.80;99.90
36002;DHT22;22070;50.922;5.430;2023-07-29T07:29:27;19.90;99.90
36002;DHT22;22070;50.922;5.430;2023-07-29T07:31:53;19.90;99.90
36002;DHT22;22070;50.922;5.430;2023-07-29T07:34:19;19.70;99.90
36002;DHT22;22070;50.922;5.430;2023-07-29T07:36:45;19.80;99.90
36002;DHT22;22070;50.922;5.430;2023-07-29T07:39:11;19.70;99.90
36002;DHT22;22070;50.922;5.430;2023-07-29T07:41:37;20.00;99.90
36002;DHT22;22070;50.922;5.430;2023-07-29T07:44:02;19.90;99.90
36002;DHT22;22070;50.922;5.430;2023-07-29T07:46:28;20.10;99.90
36002;DHT22;22070;50.922;5.430;2023-07-29T07:48:54;20.20;99.90
36002;DHT22;22070;50.922;5.430;2023-07-29T07:51:20;20.40;99.90
36002;DHT22;22070;50.922;5.430;2023-07-29T07:53:46;20.50;99.90
36002;DHT22;22070;50.922;5.430;2023-07-29T07:56:11;20.40;99.90
36002;DHT22;22070;50.922;5.430;2023-07-29T07:58:38;20.60;99.90
36002;DHT22;22070;50.922;5.430;2023-07-29T08:01:05;20.60;99.90
36002;DHT22;22070;50.922;5.430;2023-07-29T08:03:31;20.50;99.90
36002;DHT22;22070;50.922;5.430;2023-07-29T08:05:57;20.50;99.90
36002;DHT22;22070;50.922;5.430;2023-07-29T08:08:23;20.50;99.90
36002;DHT22;22070;50.922;5.430;2023-07-29T08:10:48;20.60;99.90
36002;DHT22;22070;50.922;5.430;2023-07-29T08:13:14;20.50;99.90
36002;DHT22;22070;50.922;5.430;2023-07-29T08:15:40;20.50;99.90
36002;DHT22;22070;50.922;5.430;2023-07-29T08:18:06;20.50;99.90
36002;DHT22;22070;50.922;5.430;2023-07-29T08:20:32;20.50;99.90
36002;DHT22;22070;50.922;5.430;2023-07-29T08:22:58;20.70;99.90
36002;DHT22;22070;50.922;5.430;2023-07-29T08:25:24;20.90;99.90
36002;DHT22;22070;50.922;5.430;2023-07-29T08:27:49;21.00;99.90
36002;DHT22;22070;50.922;5.430;2023-07-29T08:30:15;21.10;99.90
36002;DHT22;22070;50.922;5.430;2023-07-29T08:32:41;21.10;99.90
36002;DHT22;22070;50.922;5.430;2023-07-29T08:35:07;21.10;99.90
36002;DHT22;22070;50.922;5.430;2023-07-29T08:37:33;21.00;99.90
36002;DHT22;22070;50.922;5.430;2023-07-29T08:39:59;20.80;99.90
36002;DHT22;22070;50.922;5.430;2023-07-29T08:42:29;21.00;99.90
36002;DHT22;22070;50.922;5.430;2023-07-29T08:44:56;21.00;99.90
36002;DHT22;22070;50.922;5.430;2023-07-29T08:47:21;21.00;99.90
36002;DHT22;22070;50.922;5.430;2023-07-29T08:49:47;21.10;99.90
36002;DHT22;22070;50.922;5.430;2023-07-29T08:52:14;21.30;99.90
36002;DHT22;22070;50.922;5.430;2023-07-29T08:54:40;21.20;99.90
36002;DHT22;22070;50.922;5.430;2023-07-29T08:57:06;21.30;99.90
36002;DHT22;22070;50.922;5.430;2023-07-29T08:59:33;21.30;99.90
36002;DHT22;22070;50.922;5.430;2023-07-29T09:01:58;21.40;99.90
36002;DHT22;22070;50.922;5.430;2023-07-29T09:04:24;21.40;99.90
36002;DHT22;22070;50.922;5.430;2023-07-29T09:06:51;21.40;99.90
36002;DHT22;22070;50.922;5.430;2023-07-29T09:09:17;21.40;99.90
36002;DHT22;22070;50.922;5.430;2023-07-29T09:11:43;21.60;99.90
36002;DHT22;22070;50.922;5.430;2023-07-29T09:14:10;21.70;99.90
36002;DHT22;22070;50.922;5.430;2023-07-29T09:16:36;21.80;99.90
36002;DHT22;22070;50.922;5.430;2023-07-29T09:19:02;21.80;99.90
36002;DHT22;22070;50.922;5.430;2023-07-29T09:21:29;21.70;99.90
36002;DHT22;22070;50.922;5.430;2023-07-29T09:23:55;21.70;99.90
36002;DHT22;22070;50.922;5.430;2023-07-29T09:26:27;21.70;99.90
36002;DHT22;22070;50.922;5.430;2023-07-29T09:28:57;21.60;99.90
36002;DHT22;22070;50.922;5.430;2023-07-29T09:31:25;21.70;99.90
36002;DHT22;22070;50.922;5.430;2023-07-29T09:34:01;21.70;99.90
36002;DHT22;22070;50.922;5.430;2023-07-29T09:36:30;21.80;99.90
36002;DHT22;22070;50.922;5.430;2023-07-29T09:38:57;21.90;99.90
36002;DHT22;22070;50.922;5.430;2023-07-29T09:41:27;22.10;99.90
36002;DHT22;22070;50.922;5.430;2023-07-29T09:43:57;22.20;99.90
36002;DHT22;22070;50.922;5.430;2023-07-29T09:46:24;22.30;99.90
36002;DHT22;22070;50.922;5.430;2023-07-29T09:48:54;22.40;99.90
36002;DHT22;22070;50.922;5.430;2023-07-29T09:51:24;22.40;99.90
36002;DHT22;22070;50.922;5.430;2023-07-29T09:53:51;22.20;99.90
36002;DHT22;22070;50.922;5.430;2023-07-29T09:56:17;22.30;99.90
36002;DHT22;22070;50.922;5.430;2023-07-29T09:58:48;22.50;99.90
36002;DHT22;22070;50.922;5.430;2023-07-29T10:01:13;22.50;99.90
36002;DHT22;22070;50.922;5.430;2023-07-29T10:03:40;22.60;99.90
36002;DHT22;22070;50.922;5.430;2023-07-29T10:06:07;22.60;99.90
36002;DHT22;22070;50.922;5.430;2023-07-29T10:08:33;22.80;99.90
36002;DHT22;22070;50.922;5.430;2023-07-29T10:11:08;22.80;99.90
36002;DHT22;22070;50.922;5.430;2023-07-29T10:13:36;22.90;99.90
36002;DHT22;22070;50.922;5.430;2023-07-29T10:16:03;23.00;99.90
36002;DHT22;22070;50.922;5.430;2023-07-29T10:18:30;23.00;99.90
36002;DHT22;22070;50.922;5.430;2023-07-29T10:20:58;23.10;99.90
36002;DHT22;22070;50.922;5.430;2023-07-29T10:23:25;23.10;99.90
36002;DHT22;22070;50.922;5.430;2023-07-29T10:26:10;23.10;99.90
36002;DHT22;22070;50.922;5.430;2023-07-29T10:28:40;23.30;99.90
36002;DHT22;22070;50.922;5.430;2023-07-29T10:31:06;23.20;99.90
36002;DHT22;22070;50.922;5.430;2023-07-29T10:33:34;23.30;99.90
36002;DHT22;22070;50.922;5.430;2023-07-29T10:36:00;23.30;99.90
36002;DHT22;22070;50.922;5.430;2023-07-29T10:38:26;23.30;99.90
36002;DHT22;22070;50.922;5.430;2023-07-29T10:40:56;23.40;99.90
36002;DHT22;22070;50.922;5.430;2023-07-29T10:45:56;23.40;99.90
36002;DHT22;22070;50.922;5.430;2023-07-29T10:51:25;23.80;99.90
36002;DHT22;22070;50.922;5.430;2023-07-29T10:53:53;23.80;99.90
36002;DHT22;22070;50.922;5.430;2023-07-29T10:56:33;23.60;99.90
36002;DHT22;22070;50.922;5.430;2023-07-29T10:59:31;23.70;99.90
36002;DHT22;22070;50.922;5.430;2023-07-29T11:01:56;23.40;99.90
36002;DHT22;22070;50.922;5.430;2023-07-29T11:04:24;23.40;99.90
36002;DHT22;22070;50.922;5.430;2023-07-29T11:12:42;23.50;99.90
36002;DHT22;22070;50.922;5.430;2023-07-29T11:17:58;23.20;99.90
36002;DHT22;22070;50.922;5.430;2023-07-29T11:20:24;23.30;99.90
36002;DHT22;22070;50.922;5.430;2023-07-29T11:22:52;23.30;99.90
36002;DHT22;22070;50.922;5.430;2023-07-29T11:25:18;23.40;99.90
36002;DHT22;22070;50.922;5.430;2023-07-29T11:27:44;23.40;99.90
36002;DHT22;22070;50.922;5.430;2023-07-29T11:30:12;23.30;99.90
36002;DHT22;22070;50.922;5.430;2023-07-29T11:32:39;23.30;99.90
36002;DHT22;22070;50.922;5.430;2023-07-29T11:35:10;23.20;99.90
36002;DHT22;22070;50.922;5.430;2023-07-29T11:37:38;23.20;99.90
36002;DHT22;22070;50.922;5.430;2023-07-29T11:40:04;23.10;99.90
36002;DHT22;22070;50.922;5.430;2023-07-29T11:42:32;23.00;99.90
36002;DHT22;22070;50.922;5.430;2023-07-29T11:44:59;22.70;99.90
36002;DHT22;22070;50.922;5.430;2023-07-29T11:47:25;22.70;99.90
36002;DHT22;22070;50.922;5.430;2023-07-29T11:49:51;22.50;99.90
36002;DHT22;22070;50.922;5.430;2023-07-29T11:52:18;22.30;99.90
36002;DHT22;22070;50.922;5.430;2023-07-29T11:54:48;22.30;99.90
36002;DHT22;22070;50.922;5.430;2023-07-29T11:57:16;22.30;99.90
36002;DHT22;22070;50.922;5.430;2023-07-29T11:59:42;22.30;99.90
36002;DHT22;22070;50.922;5.430;2023-07-29T12:02:16;22.20;99.90
36002;DHT22;22070;50.922;5.430;2023-07-29T12:04:44;22.00;99.90
36002;DHT22;22070;50.922;5.430;2023-07-29T12:07:10;21.80;99.90
36002;DHT22;22070;50.922;5.430;2023-07-29T12:09:37;21.70;99.90
36002;DHT22;22070;50.922;5.430;2023-07-29T12:12:04;21.30;99.90
36002;DHT22;22070;50.922;5.430;2023-07-29T12:14:30;21.10;99.90
36002;DHT22;22070;50.922;5.430;2023-07-29T12:16:56;21.00;99.90
36002;DHT22;22070;50.922;5.430;2023-07-29T12:19:30;20.90;99.90
36002;DHT22;22070;50.922;5.430;2023-07-29T12:21:56;21.10;99.90
36002;DHT22;22070;50.922;5.430;2023-07-29T12:24:22;21.20;99.90
36002;DHT22;22070;50.922;5.430;2023-07-29T12:26:48;21.10;99.90
36002;DHT22;22070;50.922;5.430;2023-07-29T12:29:15;21.00;99.90
36002;DHT22;22070;50.922;5.430;2023-07-29T12:31:41;21.20;99.90
36002;DHT22;22070;50.922;5.430;2023-07-29T12:34:08;21.00;99.90
36002;DHT22;22070;50.922;5.430;2023-07-29T12:36:41;21.00;99.90
36002;DHT22;22070;50.922;5.430;2023-07-29T12:39:22;20.70;99.90
36002;DHT22;22070;50.922;5.430;2023-07-29T12:41:49;20.70;99.90
36002;DHT22;22070;50.922;5.430;2023-07-29T12:44:15;20.50;99.90
36002;DHT22;22070;50.922;5.430;2023-07-29T12:46:41;20.30;99.90
36002;DHT22;22070;50.922;5.430;2023-07-29T12:49:07;20.30;99.90
36002;DHT22;22070;50.922;5.430;2023-07-29T12:51:33;20.30;99.90
36002;DHT22;22070;50.922;5.430;2023-07-29T12:53:58;20.40;99.90
36002;DHT22;22070;50.922;5.430;2023-07-29T12:56:24;20.40;99.90
36002;DHT22;22070;50.922;5.430;2023-07-29T12:58:50;20.50;99.90
36002;DHT22;22070;50.922;5.430;2023-07-29T13:01:15;20.60;99.90
36002;DHT22;22070;50.922;5.430;2023-07-29T13:03:47;20.80;99.90
36002;DHT22;22070;50.922;5.430;2023-07-29T13:06:13;21.00;99.90
36002;DHT22;22070;50.922;5.430;2023-07-29T13:08:39;21.20;99.90
36002;DHT22;22070;50.922;5.430;2023-07-29T13:11:05;21.40;99.90
36002;DHT22;22070;50.922;5.430;2023-07-29T13:13:31;21.70;99.90
36002;DHT22;22070;50.922;5.430;2023-07-29T13:15:57;21.70;99.90
36002;DHT22;22070;50.922;5.430;2023-07-29T13:18:23;21.90;99.90
36002;DHT22;22070;50.922;5.430;2023-07-29T13:20:49;21.80;99.90
36002;DHT22;22070;50.922;5.430;2023-07-29T13:23:15;22.10;99.90
36002;DHT22;22070;50.922;5.430;2023-07-29T13:25:41;22.20;99.90
36002;DHT22;22070;50.922;5.430;2023-07-29T13:28:08;22.20;99.90
36002;DHT22;22070;50.922;5.430;2023-07-29T13:30:34;22.10;99.90
36002;DHT22;22070;50.922;5.430;2023-07-29T13:32:59;22.00;99.90
36002;DHT22;22070;50.922;5.430;2023-07-29T13:35:25;22.20;99.90
36002;DHT22;22070;50.922;5.430;2023-07-29T13:37:51;22.20;99.90
36002;DHT22;22070;50.922;5.430;2023-07-29T13:40:16;22.20;99.90
36002;DHT22;22070;50.922;5.430;2023-07-29T13:42:42;22.20;99.90
36002;DHT22;22070;50.922;5.430;2023-07-29T13:45:08;22.20;99.90
36002;DHT22;22070;50.922;5.430;2023-07-29T13:47:34;22.20;99.90
36002;DHT22;22070;50.922;5.430;2023-07-29T13:50:00;22.10;99.90
36002;DHT22;22070;50.922;5.430;2023-07-29T13:52:25;22.10;99.90
36002;DHT22;22070;50.922;5.430;2023-07-29T13:54:51;22.20;99.90
36002;DHT22;22070;50.922;5.430;2023-07-29T13:57:17;22.30;99.90
36002;DHT22;22070;50.922;5.430;2023-07-29T13:59:42;22.40;99.90
36002;DHT22;22070;50.922;5.430;2023-07-29T14:02:08;22.40;99.90
36002;DHT22;22070;50.922;5.430;2023-07-29T14:04:34;22.50;99.90
36002;DHT22;22070;50.922;5.430;2023-07-29T14:07:00;22.50;99.90
36002;DHT22;22070;50.922;5.430;2023-07-29T14:09:26;22.40;99.90
36002;DHT22;22070;50.922;5.430;2023-07-29T14:11:52;22.50;99.90
36002;DHT22;22070;50.922;5.430;2023-07-29T14:14:17;22.50;99.90
36002;DHT22;22070;50.922;5.430;2023-07-29T14:16:43;22.70;99.90
36002;DHT22;22070;50.922;5.430;2023-07-29T14:19:09;22.80;99.90
36002;DHT22;22070;50.922;5.430;2023-07-29T14:21:34;23.00;99.90
36002;DHT22;22070;50.922;5.430;2023-07-29T14:24:00;23.00;99.90
36002;DHT22;22070;50.922;5.430;2023-07-29T14:26:26;23.20;99.90
36002;DHT22;22070;50.922;5.430;2023-07-29T14:28:52;23.30;99.90
36002;DHT22;22070;50.922;5.430;2023-07-29T14:31:17;23.40;99.90
36002;DHT22;22070;50.922;5.430;2023-07-29T14:33:44;23.50;99.90
36002;DHT22;22070;50.922;5.430;2023-07-29T14:36:09;23.40;99.90
36002;DHT22;22070;50.922;5.430;2023-07-29T14:38:36;23.40;99.90
36002;DHT22;22070;50.922;5.430;2023-07-29T14:41:02;23.40;99.90
36002;DHT22;22070;50.922;5.430;2023-07-29T14:43:28;23.40;99.90
36002;DHT22;22070;50.922;5.430;2023-07-29T14:45:54;23.60;99.90
36002;DHT22;22070;50.922;5.430;2023-07-29T14:48:19;23.60;99.90
36002;DHT22;22070;50.922;5.430;2023-07-29T14:50:45;23.70;99.90
36002;DHT22;22070;50.922;5.430;2023-07-29T14:53:11;24.10;99.90
36002;DHT22;22070;50.922;5.430;2023-07-29T14:55:39;24.30;99.90
36002;DHT22;22070;50.922;5.430;2023-07-29T14:58:05;24.40;99.90
36002;DHT22;22070;50.922;5.430;2023-07-29T15:00:31;24.40;99.90
36002;DHT22;22070;50.922;5.430;2023-07-29T15:02:56;24.50;99.90
36002;DHT22;22070;50.922;5.430;2023-07-29T15:05:22;24.30;99.90
36002;DHT22;22070;50.922;5.430;2023-07-29T15:07:48;24.10;99.90
36002;DHT22;22070;50.922;5.430;2023-07-29T15:10:15;24.20;99.90
36002;DHT22;22070;50.922;5.430;2023-07-29T15:12:44;24.00;99.90
36002;DHT22;22070;50.922;5.430;2023-07-29T15:15:11;23.70;99.90
36002;DHT22;22070;50.922;5.430;2023-07-29T15:17:37;23.50;99.90
36002;DHT22;22070;50.922;5.430;2023-07-29T15:20:03;23.60;99.90
36002;DHT22;22070;50.922;5.430;2023-07-29T15:22:29;23.40;99.90
36002;DHT22;22070;50.922;5.430;2023-07-29T15:24:57;23.50;99.90
36002;DHT22;22070;50.922;5.430;2023-07-29T15:27:23;23.50;99.90
36002;DHT22;22070;50.922;5.430;2023-07-29T15:29:48;23.60;99.90
36002;DHT22;22070;50.922;5.430;2023-07-29T15:32:14;23.60;99.90
36002;DHT22;22070;50.922;5.430;2023-07-29T15:34:40;23.90;99.90
36002;DHT22;22070;50.922;5.430;2023-07-29T15:37:05;23.90;99.90
36002;DHT22;22070;50.922;5.430;2023-07-29T15:39:31;23.90;99.90
36002;DHT22;22070;50.922;5.430;2023-07-29T15:41:57;24.00;99.90
36002;DHT22;22070;50.922;5.430;2023-07-29T15:44:23;24.00;99.90